Harry B. Settoon — WDE5658 — position and weather

sailwx.info

Track history (hours):
 
Tides and Currents Weather Stations Pressure Air Temp Water Temp Dewpoint Dewpoint Depression Visibility Wind Speed Wind Dir Waves Ship Positions

Harry B. Settoon

Owner: Settoon Towing, LLC, Houma, LA. More information available from US FCC via Universal Licensing System and Coast Guard Vessel Documentation Center.

Last reported at 2015-Feb-16 05:19 UTC. Time now 2015-Mar-02 16:35 UTC.
Position N 29°47' W 091°44'.
Warning: this ship's position is 14 days out of date.

; draft 1.8 m.

Type: Tug. MMSI: 367369920.

Date/timePositionNaut miles runAvg speedWind from/ knotsBaromVisibWave heightAir tempDewpointWater temp
2015-Feb-16 05:19N 29°47' W 091°44'8 2.9
2015-Feb-16 02:33N 29°45' W 091°35'8 7.7
2015-Feb-16 01:33N 29°41' W 091°28'7 6.7
2015-Feb-16 00:33N 29°38' W 091°20'7 6.9
2015-Feb-15 23:33N 29°41' W 091°13'3 2.6
2015-Feb-15 22:33N 29°41' W 091°10'0 0.2
2015-Feb-15 21:33N 29°41' W 091°10'3 3.3
2015-Feb-15 20:33N 29°39' W 091°07'6 5.8
2015-Feb-15 19:32N 29°37' W 091°01'  
2015-Feb-12 05:08N 29°15' W 090°40'0 0.0
2015-Feb-12 04:33N 29°15' W 090°40'4 3.3
2015-Feb-12 03:29N 29°18' W 090°43'23 0.8
2015-Feb-10 22:28N 29°36' W 090°59'5 5.9
2015-Feb-10 21:33N 29°38' W 091°05'6 5.6
2015-Feb-10 20:33N 29°41' W 091°10'0 0.4
2015-Feb-10 19:33N 29°41' W 091°10'0 0.1
2015-Feb-10 18:33N 29°41' W 091°10'0 0.0
2015-Feb-10 17:33N 29°41' W 091°10'0 0.0
2015-Feb-10 16:33N 29°41' W 091°10'0 0.0
2015-Feb-10 15:33N 29°41' W 091°10'0 0.0
2015-Feb-10 14:33N 29°41' W 091°10'0 0.0
2015-Feb-10 13:33N 29°41' W 091°10'0 0.0
2015-Feb-10 12:33N 29°41' W 091°10'0 0.0
2015-Feb-10 11:33N 29°41' W 091°10'0 0.0
2015-Feb-10 10:33N 29°41' W 091°10'0 0.0
2015-Feb-10 09:33N 29°41' W 091°10'0 0.0
2015-Feb-10 08:33N 29°41' W 091°10'0 0.0
2015-Feb-10 07:33N 29°41' W 091°10'0 0.0
2015-Feb-10 06:33N 29°41' W 091°10'0 0.0
2015-Feb-10 05:33N 29°41' W 091°10'0 0.0
2015-Feb-10 04:33N 29°41' W 091°10'0 0.0
2015-Feb-10 03:33N 29°41' W 091°10'0 0.0
2015-Feb-10 02:33N 29°41' W 091°10'0 0.0
2015-Feb-10 01:33N 29°41' W 091°10'0 0.0
2015-Feb-10 00:33N 29°41' W 091°10'0 0.0
2015-Feb-09 23:33N 29°41' W 091°10'0 0.0
2015-Feb-09 22:33N 29°41' W 091°10'0 0.0
2015-Feb-09 21:33N 29°41' W 091°10'0 0.0
2015-Feb-09 20:33N 29°41' W 091°10'0 0.0
2015-Feb-09 19:33N 29°41' W 091°10'0 0.0
2015-Feb-09 18:33N 29°41' W 091°10'0 0.0
2015-Feb-09 17:33N 29°41' W 091°10'0 0.0
2015-Feb-09 16:33N 29°41' W 091°10'0 0.0
2015-Feb-09 15:33N 29°41' W 091°10'0 0.0
2015-Feb-09 14:33N 29°41' W 091°10'0 0.0
2015-Feb-09 13:33N 29°41' W 091°10'0 0.0
2015-Feb-09 12:33N 29°41' W 091°10'0 0.0
2015-Feb-09 11:33N 29°41' W 091°10'0 0.0
2015-Feb-09 10:33N 29°41' W 091°10'0 0.0
2015-Feb-09 09:33N 29°41' W 091°10'0 0.0
2015-Feb-09 08:33N 29°41' W 091°10'0 0.0
2015-Feb-09 07:33N 29°41' W 091°10'0 0.0
2015-Feb-09 06:33N 29°41' W 091°10'0 0.0
2015-Feb-09 05:33N 29°41' W 091°10'0 0.0
2015-Feb-09 04:33N 29°41' W 091°10'0 0.0
2015-Feb-09 03:33N 29°41' W 091°10'0 0.0
2015-Feb-09 02:33N 29°41' W 091°10'0 0.0
2015-Feb-09 01:33N 29°41' W 091°10'0 0.0
2015-Feb-09 00:33N 29°41' W 091°10'0 0.0
2015-Feb-08 23:33N 29°41' W 091°10'0 0.0
2015-Feb-08 22:33N 29°41' W 091°10'0 0.0
2015-Feb-08 21:33N 29°41' W 091°10'0 0.0
2015-Feb-08 20:33N 29°41' W 091°10'0 0.0
2015-Feb-08 19:33N 29°41' W 091°10'0 0.0
2015-Feb-08 18:33N 29°41' W 091°10'0 0.0
2015-Feb-08 17:33N 29°41' W 091°10'0 0.0
2015-Feb-08 16:33N 29°41' W 091°10'0 0.0
2015-Feb-08 15:33N 29°41' W 091°10'0 0.0
2015-Feb-08 14:33N 29°41' W 091°10'0 0.0
2015-Feb-08 13:33N 29°41' W 091°10'0 0.0
2015-Feb-08 12:33N 29°41' W 091°10'0 0.0
2015-Feb-08 11:33N 29°41' W 091°10'0 0.0
2015-Feb-08 10:33N 29°41' W 091°10'0 0.0
2015-Feb-08 09:33N 29°41' W 091°10'0 0.0
2015-Feb-08 08:33N 29°41' W 091°10'0 0.0
2015-Feb-08 07:33N 29°41' W 091°10'0 0.0
2015-Feb-08 06:33N 29°41' W 091°10'0 0.0
2015-Feb-08 05:33N 29°41' W 091°10'0 0.0
2015-Feb-08 04:33N 29°41' W 091°10'0 0.0
2015-Feb-08 03:33N 29°41' W 091°10'0 0.0
2015-Feb-08 02:33N 29°41' W 091°10'0 0.0
2015-Feb-08 01:33N 29°41' W 091°10'0 0.0
2015-Feb-08 00:33N 29°41' W 091°10'0 0.0
2015-Feb-07 23:33N 29°41' W 091°10'0 0.0
2015-Feb-07 22:33N 29°41' W 091°10'0 0.0
2015-Feb-07 21:33N 29°41' W 091°10'0 0.0
2015-Feb-07 20:33N 29°41' W 091°10'0 0.0
2015-Feb-07 19:33N 29°41' W 091°10'0 0.0
2015-Feb-07 18:33N 29°41' W 091°10'0 0.0
2015-Feb-07 17:33N 29°41' W 091°10'0 0.0
2015-Feb-07 16:33N 29°41' W 091°10'0 0.0
2015-Feb-07 15:33N 29°41' W 091°10'0 0.0
2015-Feb-07 14:33N 29°41' W 091°10'0 0.0
2015-Feb-07 13:33N 29°41' W 091°10'0 0.0
2015-Feb-07 12:33N 29°41' W 091°10'0 0.0
2015-Feb-07 11:33N 29°41' W 091°10'0 0.0
2015-Feb-07 10:33N 29°41' W 091°10'0 0.0
2015-Feb-07 09:33N 29°41' W 091°10'0 0.0
2015-Feb-07 08:33N 29°41' W 091°10'0 0.0
2015-Feb-07 07:33N 29°41' W 091°10'0 0.0
2015-Feb-07 06:33N 29°41' W 091°10'0 0.0
2015-Feb-07 05:33N 29°41' W 091°10'0 0.0
2015-Feb-07 04:33N 29°41' W 091°10'0 0.0
2015-Feb-07 03:33N 29°41' W 091°10'0 0.0
2015-Feb-07 02:33N 29°41' W 091°10'0 0.0
2015-Feb-07 01:33N 29°41' W 091°10'0 0.0
2015-Feb-07 00:33N 29°41' W 091°10'0 0.0
2015-Feb-06 23:33N 29°41' W 091°10'0 0.3
2015-Feb-06 22:33N 29°41' W 091°10'0 0.3
2015-Feb-06 21:33N 29°41' W 091°10'0 0.1
2015-Feb-06 20:33N 29°41' W 091°10'0 0.1
2015-Feb-06 19:33N 29°41' W 091°10'0 0.0
2015-Feb-06 18:34N 29°41' W 091°10'0 0.0
2015-Feb-06 17:33N 29°41' W 091°10'0 0.0
2015-Feb-06 16:33N 29°41' W 091°10'0 0.0
2015-Feb-06 15:33N 29°41' W 091°10'0 0.0
2015-Feb-06 14:33N 29°41' W 091°10'0 0.0
2015-Feb-06 13:33N 29°41' W 091°10'0 0.0
2015-Feb-06 12:33N 29°41' W 091°10'0 0.0
2015-Feb-06 11:33N 29°41' W 091°10'1 1.0
2015-Feb-06 10:33N 29°41' W 091°11'2 1.6
2015-Feb-06 09:33N 29°42' W 091°13'3 3.4
2015-Feb-06 08:33N 29°39' W 091°15'5 4.8
2015-Feb-06 07:33N 29°38' W 091°21'7 5.9
2015-Feb-06 06:27N 29°41' W 091°28'  
Track history (hours):
 
Tides and Currents Weather Stations Pressure Air Temp Water Temp Dewpoint Dewpoint Depression Visibility Wind Speed Wind Dir Waves Ship Positions

Harry B. Settoon

Owner: Settoon Towing, LLC, Houma, LA. More information available from US FCC via Universal Licensing System and Coast Guard Vessel Documentation Center.

Last reported at 2015-Feb-16 05:19 UTC. Time now 2015-Mar-02 16:35 UTC.
Position N 29°47' W 091°44'.
Warning: this ship's position is 14 days out of date.

; draft 1.8 m.

Type: Tug. MMSI: 367369920.

Date/timePositionNaut miles runAvg speedWind from/ knotsBaromVisibWave heightAir tempDewpointWater temp
2015-Feb-16 05:19N 29°47' W 091°44'8 2.9
2015-Feb-16 02:33N 29°45' W 091°35'8 7.7
2015-Feb-16 01:33N 29°41' W 091°28'7 6.7
2015-Feb-16 00:33N 29°38' W 091°20'7 6.9
2015-Feb-15 23:33N 29°41' W 091°13'3 2.6
2015-Feb-15 22:33N 29°41' W 091°10'0 0.2
2015-Feb-15 21:33N 29°41' W 091°10'3 3.3
2015-Feb-15 20:33N 29°39' W 091°07'6 5.8
2015-Feb-15 19:32N 29°37' W 091°01'  
2015-Feb-12 05:08N 29°15' W 090°40'0 0.0
2015-Feb-12 04:33N 29°15' W 090°40'4 3.3
2015-Feb-12 03:29N 29°18' W 090°43'23 0.8
2015-Feb-10 22:28N 29°36' W 090°59'5 5.9
2015-Feb-10 21:33N 29°38' W 091°05'6 5.6
2015-Feb-10 20:33N 29°41' W 091°10'0 0.4
2015-Feb-10 19:33N 29°41' W 091°10'0 0.1
2015-Feb-10 18:33N 29°41' W 091°10'0 0.0
2015-Feb-10 17:33N 29°41' W 091°10'0 0.0
2015-Feb-10 16:33N 29°41' W 091°10'0 0.0
2015-Feb-10 15:33N 29°41' W 091°10'0 0.0
2015-Feb-10 14:33N 29°41' W 091°10'0 0.0
2015-Feb-10 13:33N 29°41' W 091°10'0 0.0
2015-Feb-10 12:33N 29°41' W 091°10'0 0.0
2015-Feb-10 11:33N 29°41' W 091°10'0 0.0
2015-Feb-10 10:33N 29°41' W 091°10'0 0.0
2015-Feb-10 09:33N 29°41' W 091°10'0 0.0
2015-Feb-10 08:33N 29°41' W 091°10'0 0.0
2015-Feb-10 07:33N 29°41' W 091°10'0 0.0
2015-Feb-10 06:33N 29°41' W 091°10'0 0.0
2015-Feb-10 05:33N 29°41' W 091°10'0 0.0
2015-Feb-10 04:33N 29°41' W 091°10'0 0.0
2015-Feb-10 03:33N 29°41' W 091°10'0 0.0
2015-Feb-10 02:33N 29°41' W 091°10'0 0.0
2015-Feb-10 01:33N 29°41' W 091°10'0 0.0
2015-Feb-10 00:33N 29°41' W 091°10'0 0.0
2015-Feb-09 23:33N 29°41' W 091°10'0 0.0
2015-Feb-09 22:33N 29°41' W 091°10'0 0.0
2015-Feb-09 21:33N 29°41' W 091°10'0 0.0
2015-Feb-09 20:33N 29°41' W 091°10'0 0.0
2015-Feb-09 19:33N 29°41' W 091°10'0 0.0
2015-Feb-09 18:33N 29°41' W 091°10'0 0.0
2015-Feb-09 17:33N 29°41' W 091°10'0 0.0
2015-Feb-09 16:33N 29°41' W 091°10'0 0.0
2015-Feb-09 15:33N 29°41' W 091°10'0 0.0
2015-Feb-09 14:33N 29°41' W 091°10'0 0.0
2015-Feb-09 13:33N 29°41' W 091°10'0 0.0
2015-Feb-09 12:33N 29°41' W 091°10'0 0.0
2015-Feb-09 11:33N 29°41' W 091°10'0 0.0
2015-Feb-09 10:33N 29°41' W 091°10'0 0.0
2015-Feb-09 09:33N 29°41' W 091°10'0 0.0
2015-Feb-09 08:33N 29°41' W 091°10'0 0.0
2015-Feb-09 07:33N 29°41' W 091°10'0 0.0
2015-Feb-09 06:33N 29°41' W 091°10'0 0.0
2015-Feb-09 05:33N 29°41' W 091°10'0 0.0
2015-Feb-09 04:33N 29°41' W 091°10'0 0.0
2015-Feb-09 03:33N 29°41' W 091°10'0 0.0
2015-Feb-09 02:33N 29°41' W 091°10'0 0.0
2015-Feb-09 01:33N 29°41' W 091°10'0 0.0
2015-Feb-09 00:33N 29°41' W 091°10'0 0.0
2015-Feb-08 23:33N 29°41' W 091°10'0 0.0
2015-Feb-08 22:33N 29°41' W 091°10'0 0.0
2015-Feb-08 21:33N 29°41' W 091°10'0 0.0
2015-Feb-08 20:33N 29°41' W 091°10'0 0.0
2015-Feb-08 19:33N 29°41' W 091°10'0 0.0
2015-Feb-08 18:33N 29°41' W 091°10'0 0.0
2015-Feb-08 17:33N 29°41' W 091°10'0 0.0
2015-Feb-08 16:33N 29°41' W 091°10'0 0.0
2015-Feb-08 15:33N 29°41' W 091°10'0 0.0
2015-Feb-08 14:33N 29°41' W 091°10'0 0.0
2015-Feb-08 13:33N 29°41' W 091°10'0 0.0
2015-Feb-08 12:33N 29°41' W 091°10'0 0.0
2015-Feb-08 11:33N 29°41' W 091°10'0 0.0
2015-Feb-08 10:33N 29°41' W 091°10'0 0.0
2015-Feb-08 09:33N 29°41' W 091°10'0 0.0
2015-Feb-08 08:33N 29°41' W 091°10'0 0.0
2015-Feb-08 07:33N 29°41' W 091°10'0 0.0
2015-Feb-08 06:33N 29°41' W 091°10'0 0.0
2015-Feb-08 05:33N 29°41' W 091°10'0 0.0
2015-Feb-08 04:33N 29°41' W 091°10'0 0.0
2015-Feb-08 03:33N 29°41' W 091°10'0 0.0
2015-Feb-08 02:33N 29°41' W 091°10'0 0.0
2015-Feb-08 01:33N 29°41' W 091°10'0 0.0
2015-Feb-08 00:33N 29°41' W 091°10'0 0.0
2015-Feb-07 23:33N 29°41' W 091°10'0 0.0
2015-Feb-07 22:33N 29°41' W 091°10'0 0.0
2015-Feb-07 21:33N 29°41' W 091°10'0 0.0
2015-Feb-07 20:33N 29°41' W 091°10'0 0.0
2015-Feb-07 19:33N 29°41' W 091°10'0 0.0
2015-Feb-07 18:33N 29°41' W 091°10'0 0.0
2015-Feb-07 17:33N 29°41' W 091°10'0 0.0
2015-Feb-07 16:33N 29°41' W 091°10'0 0.0
2015-Feb-07 15:33N 29°41' W 091°10'0 0.0
2015-Feb-07 14:33N 29°41' W 091°10'0 0.0
2015-Feb-07 13:33N 29°41' W 091°10'0 0.0
2015-Feb-07 12:33N 29°41' W 091°10'0 0.0
2015-Feb-07 11:33N 29°41' W 091°10'0 0.0
2015-Feb-07 10:33N 29°41' W 091°10'0 0.0
2015-Feb-07 09:33N 29°41' W 091°10'0 0.0
2015-Feb-07 08:33N 29°41' W 091°10'0 0.0
2015-Feb-07 07:33N 29°41' W 091°10'0 0.0
2015-Feb-07 06:33N 29°41' W 091°10'0 0.0
2015-Feb-07 05:33N 29°41' W 091°10'0 0.0
2015-Feb-07 04:33N 29°41' W 091°10'0 0.0
2015-Feb-07 03:33N 29°41' W 091°10'0 0.0
2015-Feb-07 02:33N 29°41' W 091°10'0 0.0
2015-Feb-07 01:33N 29°41' W 091°10'0 0.0
2015-Feb-07 00:33N 29°41' W 091°10'0 0.0
2015-Feb-06 23:33N 29°41' W 091°10'0 0.3
2015-Feb-06 22:33N 29°41' W 091°10'0 0.3
2015-Feb-06 21:33N 29°41' W 091°10'0 0.1
2015-Feb-06 20:33N 29°41' W 091°10'0 0.1
2015-Feb-06 19:33N 29°41' W 091°10'0 0.0
2015-Feb-06 18:34N 29°41' W 091°10'0 0.0
2015-Feb-06 17:33N 29°41' W 091°10'0 0.0
2015-Feb-06 16:33N 29°41' W 091°10'0 0.0
2015-Feb-06 15:33N 29°41' W 091°10'0 0.0
2015-Feb-06 14:33N 29°41' W 091°10'0 0.0
2015-Feb-06 13:33N 29°41' W 091°10'0 0.0
2015-Feb-06 12:33N 29°41' W 091°10'0 0.0
2015-Feb-06 11:33N 29°41' W 091°10'1 1.0
2015-Feb-06 10:33N 29°41' W 091°11'2 1.6
2015-Feb-06 09:33N 29°42' W 091°13'3 3.4
2015-Feb-06 08:33N 29°39' W 091°15'5 4.8
2015-Feb-06 07:33N 29°38' W 091°21'7 5.9
2015-Feb-06 06:27N 29°41' W 091°28'  

Dump ship's entire track history